createdAt,value
2019-06-10T00:00:16.573Z,98497.41
2019-06-10T00:02:43.083Z,98490.09
2019-06-10T00:05:10.944Z,98488.92
2019-06-10T00:07:37.491Z,98482.63
2019-06-10T00:10:06.199Z,98483.49
2019-06-10T00:12:33.842Z,98479.74
2019-06-10T00:15:01.843Z,98480.00
2019-06-10T00:17:28.774Z,98477.58
2019-06-10T00:19:55.260Z,98475.45
2019-06-10T00:22:21.785Z,98470.16
2019-06-10T00:24:48.239Z,98473.62
2019-06-10T00:27:17.749Z,98477.28
2019-06-10T00:29:44.253Z,98466.83
2019-06-10T00:32:13.112Z,98460.19
2019-06-10T00:34:41.901Z,98465.50
2019-06-10T00:37:12.009Z,98459.34
2019-06-10T00:39:36.814Z,98456.13
2019-06-10T00:42:07.557Z,98465.03
2019-06-10T00:44:31.813Z,98461.61
2019-06-10T00:47:00.142Z,98452.69
2019-06-10T00:49:27.289Z,98445.97
2019-06-10T00:51:53.814Z,98453.41
2019-06-10T00:54:21.913Z,98460.44
2019-06-10T00:56:48.634Z,98457.92
2019-06-10T00:59:15.519Z,98460.74
2019-06-10T01:02:14.976Z,98452.86
2019-06-10T01:04:41.767Z,98447.75
2019-06-10T01:07:08.622Z,98445.39
2019-06-10T01:09:36.950Z,98447.96
2019-06-10T01:12:04.826Z,98453.14
2019-06-10T01:14:31.999Z,98439.63
2019-06-10T01:17:01.150Z,98434.48
2019-06-10T01:19:27.339Z,98435.05
2019-06-10T01:21:54.079Z,98435.27
2019-06-10T01:24:22.308Z,98439.41
2019-06-10T01:26:50.575Z,98435.59
2019-06-10T01:29:21.050Z,98430.89
2019-06-10T01:31:47.699Z,98428.02
2019-06-10T01:34:15.176Z,98422.23
2019-06-10T01:36:41.751Z,98418.88
2019-06-10T01:39:09.493Z,98405.98
2019-06-10T01:41:37.110Z,98404.95
2019-06-10T01:44:03.996Z,98400.11
2019-06-10T01:46:34.778Z,98390.43
2019-06-10T01:49:01.387Z,98390.25
2019-06-10T01:51:27.866Z,98383.14
2019-06-10T01:53:54.400Z,98380.57
2019-06-10T01:56:21.499Z,98367.30
2019-06-10T01:58:48.266Z,98368.23
2019-06-10T02:01:33.429Z,98370.80
2019-06-10T02:04:00.913Z,98365.19
2019-06-10T02:06:27.428Z,98359.11
2019-06-10T02:09:04.298Z,98361.20
2019-06-10T02:11:31.722Z,98360.35
2019-06-10T02:14:00.796Z,98363.86
2019-06-10T02:16:26.652Z,98361.98
2019-06-10T02:19:00.053Z,98355.33
2019-06-10T02:21:24.311Z,98366.73
2019-06-10T02:23:52.047Z,98363.60
2019-06-10T02:26:19.890Z,98356.48
2019-06-10T02:28:47.921Z,98344.71
2019-06-10T02:31:18.728Z,98327.23
2019-06-10T02:33:42.834Z,98331.66
2019-06-10T02:36:09.358Z,98328.70
2019-06-10T02:38:39.520Z,98324.34
2019-06-10T02:41:05.001Z,98312.77
2019-06-10T02:43:36.774Z,98318.84
2019-06-10T02:46:03.874Z,98312.53
2019-06-10T02:48:30.590Z,98316.66
2019-06-10T02:51:04.025Z,98326.31
2019-06-10T02:53:35.606Z,98326.72
2019-06-10T02:56:00.075Z,98324.84
2019-06-10T02:58:31.490Z,98320.56
2019-06-10T03:00:55.120Z,98325.70
2019-06-10T03:03:32.444Z,98332.16
2019-06-10T03:05:53.686Z,98338.59
2019-06-10T03:08:22.156Z,98337.65
2019-06-10T03:10:48.390Z,98334.52
2019-06-10T03:13:15.613Z,98327.80
2019-06-10T03:15:45.865Z,98331.78
2019-06-10T03:18:12.953Z,98326.72
2019-06-10T03:20:43.533Z,98323.88
2019-06-10T03:23:12.037Z,98328.50
2019-06-10T03:25:38.652Z,98323.30
2019-06-10T03:28:15.431Z,98325.55
2019-06-10T03:30:53.525Z,98323.52
2019-06-10T03:33:19.678Z,98324.91
2019-06-10T03:35:46.142Z,98327.86
2019-06-10T03:38:12.650Z,98322.64
2019-06-10T03:40:39.290Z,98315.38
2019-06-10T03:43:07.037Z,98325.23
2019-06-10T03:45:33.543Z,98326.47
2019-06-10T03:48:00.132Z,98332.26
2019-06-10T03:50:29.766Z,98343.20
2019-06-10T03:52:56.387Z,98343.20
2019-06-10T03:55:29.196Z,98336.18
2019-06-10T03:57:55.739Z,98331.13
2019-06-10T04:00:25.419Z,98332.55
2019-06-10T04:02:59.844Z,98332.37
2019-06-10T04:05:28.852Z,98325.41
2019-06-10T04:07:55.546Z,98325.05
2019-06-10T04:10:24.499Z,98325.30
2019-06-10T04:12:52.350Z,98333.09
2019-06-10T04:15:19.739Z,98331.05
2019-06-10T04:17:46.370Z,98327.27
2019-06-10T04:20:25.044Z,98326.36
2019-06-10T04:23:22.720Z,98318.70
2019-06-10T04:25:48.824Z,98316.97
2019-06-10T04:28:15.589Z,98319.09
2019-06-10T04:30:53.687Z,98319.86
2019-06-10T04:33:25.806Z,98328.59
2019-06-10T04:35:52.139Z,98338.06
2019-06-10T04:38:18.917Z,98336.36
2019-06-10T04:40:45.438Z,98323.25
2019-06-10T04:43:12.486Z,98313.53
2019-06-10T04:45:39.125Z,98318.08
2019-06-10T04:48:05.867Z,98319.97
2019-06-10T04:50:41.645Z,98318.25
2019-06-10T04:53:02.293Z,98313.89
2019-06-10T04:55:38.274Z,98317.63
2019-06-10T04:58:05.025Z,98313.27
2019-06-10T05:00:33.090Z,98308.57
2019-06-10T05:03:06.486Z,98298.89
2019-06-10T05:05:44.207Z,98307.63
2019-06-10T05:08:23.243Z,98311.35
2019-06-10T05:10:49.420Z,98303.71
2019-06-10T05:13:15.901Z,98301.34
2019-06-10T05:15:43.723Z,98304.19
2019-06-10T05:18:10.264Z,98298.40
2019-06-10T05:20:54.102Z,98290.25
2019-06-10T05:23:05.645Z,98292.44
2019-06-10T05:25:32.740Z,98304.16
2019-06-10T05:27:59.475Z,98297.52
2019-06-10T05:30:29.492Z,98299.22
2019-06-10T05:32:56.631Z,98305.12
2019-06-10T05:35:30.877Z,98314.90
2019-06-10T05:37:58.287Z,98317.34
2019-06-10T05:40:26.216Z,98317.58
2019-06-10T05:42:53.390Z,98319.17
2019-06-10T05:45:23.016Z,98319.00
2019-06-10T05:47:53.112Z,98311.33
2019-06-10T05:50:22.108Z,98295.92
2019-06-10T05:52:52.025Z,98290.24
2019-06-10T05:55:18.874Z,98289.34
2019-06-10T05:57:45.444Z,98281.90
2019-06-10T06:00:14.876Z,98286.81
2019-06-10T06:02:43.240Z,98286.81
2019-06-10T06:05:10.128Z,98279.77
2019-06-10T06:07:37.581Z,98277.26
2019-06-10T06:10:04.389Z,98281.85
2019-06-10T06:12:33.876Z,98279.69
2019-06-10T06:15:02.198Z,98273.42
2019-06-10T06:17:28.353Z,98270.45
2019-06-10T06:19:54.869Z,98264.73
2019-06-10T06:22:22.225Z,98261.69
2019-06-10T06:24:48.820Z,98257.05
2019-06-10T06:27:15.624Z,98256.83
2019-06-10T06:29:44.452Z,98258.38
2019-06-10T06:32:13.233Z,98260.02
2019-06-10T06:34:43.356Z,98261.64
2019-06-10T06:37:09.866Z,98256.36
2019-06-10T06:39:52.311Z,98251.35
2019-06-10T06:42:19.343Z,98251.41
2019-06-10T06:44:45.876Z,98258.71
2019-06-10T06:47:27.916Z,98262.58
2019-06-10T06:49:54.464Z,98266.50
2019-06-10T06:52:38.960Z,98260.14
2019-06-10T06:54:52.877Z,98260.80
2019-06-10T06:57:25.106Z,98265.32
2019-06-10T06:59:52.613Z,98260.92
2019-06-10T07:02:19.310Z,98271.53
2019-06-10T07:04:45.943Z,98266.88
2019-06-10T07:07:13.682Z,98271.63
2019-06-10T07:09:54.087Z,98265.41
2019-06-10T07:12:25.349Z,98262.86
2019-06-10T07:14:53.002Z,98260.80
2019-06-10T07:17:22.759Z,98261.23
2019-06-10T07:19:49.498Z,98257.52
2019-06-10T07:22:16.485Z,98255.06
2019-06-10T07:24:47.590Z,98254.22
2019-06-10T07:27:13.128Z,98253.80
2019-06-10T07:29:44.989Z,98247.55
2019-06-10T07:32:08.994Z,98245.41
2019-06-10T07:34:37.095Z,98245.83
2019-06-10T07:37:04.214Z,98247.05
2019-06-10T07:39:30.853Z,98244.55
2019-06-10T07:41:57.488Z,98236.94
2019-06-10T07:44:24.028Z,98240.55
2019-06-10T07:46:53.152Z,98237.29
2019-06-10T07:49:27.522Z,98235.31
2019-06-10T07:51:54.008Z,98238.59
2019-06-10T07:54:22.896Z,98239.19
2019-06-10T07:56:50.640Z,98245.22
2019-06-10T07:59:17.593Z,98247.77
2019-06-10T08:01:54.290Z,98247.75
2019-06-10T08:04:18.449Z,98247.13
2019-06-10T08:06:53.212Z,98247.52
2019-06-10T08:09:22.835Z,98247.08
2019-06-10T08:11:49.892Z,98245.91
2019-06-10T08:14:22.160Z,98247.81
2019-06-10T08:16:48.698Z,98252.48
2019-06-10T08:19:29.288Z,98253.03
2019-06-10T08:21:47.347Z,98248.17
2019-06-10T08:24:12.743Z,98244.36
2019-06-10T08:26:48.050Z,98241.41
2019-06-10T08:29:14.839Z,98237.29
2019-06-10T08:31:46.333Z,98245.36
2019-06-10T08:34:14.607Z,98256.84
2019-06-10T08:36:46.341Z,98243.89
2019-06-10T08:39:15.140Z,98236.19
2019-06-10T08:41:40.559Z,98236.28
2019-06-10T08:44:07.730Z,98236.98
2019-06-10T08:46:34.667Z,98236.77
2019-06-10T08:49:03.162Z,98234.72
2019-06-10T08:51:32.320Z,98236.61
2019-06-10T08:53:58.606Z,98244.94
2019-06-10T08:56:25.157Z,98239.52
2019-06-10T08:58:54.057Z,98239.68
2019-06-10T09:01:22.371Z,98240.47
2019-06-10T09:03:50.487Z,98231.27
2019-06-10T09:06:18.139Z,98227.89
2019-06-10T09:08:54.721Z,98222.55
2019-06-10T09:11:23.678Z,98218.02
2019-06-10T09:13:50.520Z,98214.83
2019-06-10T09:16:19.537Z,98224.06
2019-06-10T09:18:49.634Z,98224.33
2019-06-10T09:21:14.983Z,98223.78
2019-06-10T09:23:47.109Z,98227.00
2019-06-10T09:26:12.400Z,98224.92
2019-06-10T09:28:40.561Z,98224.38
2019-06-10T09:31:07.982Z,98225.92
2019-06-10T09:33:34.875Z,98235.10
2019-06-10T09:36:03.222Z,98239.98
2019-06-10T09:38:33.424Z,98241.16
2019-06-10T09:41:06.572Z,98241.73
2019-06-10T09:43:33.577Z,98241.09
2019-06-10T09:46:03.247Z,98236.43
2019-06-10T09:48:29.417Z,98231.05
2019-06-10T09:50:58.975Z,98239.30
2019-06-10T09:53:33.533Z,98227.20
2019-06-10T09:55:55.645Z,98231.98
2019-06-10T09:58:23.161Z,98229.60
2019-06-10T10:00:57.254Z,98229.44
2019-06-10T10:03:23.210Z,98221.99
2019-06-10T10:06:06.292Z,98219.28
2019-06-10T10:08:18.442Z,98221.48
2019-06-10T10:10:51.085Z,98206.32
2019-06-10T10:13:14.969Z,98207.86
2019-06-10T10:15:52.121Z,98202.53
2019-06-10T10:18:19.431Z,98208.49
2019-06-10T10:20:48.153Z,98203.92
2019-06-10T10:23:14.671Z,98202.80
2019-06-10T10:25:44.925Z,98196.25
2019-06-10T10:28:09.982Z,98197.38
2019-06-10T10:30:36.503Z,98192.27
2019-06-10T10:33:09.465Z,98190.38
2019-06-10T10:35:35.949Z,98192.48
2019-06-10T10:38:03.878Z,98185.83
2019-06-10T10:40:32.621Z,98185.63
2019-06-10T10:43:19.905Z,98184.88
2019-06-10T10:45:27.975Z,98184.92
2019-06-10T10:47:56.747Z,98175.34
2019-06-10T10:50:23.277Z,98172.56
2019-06-10T10:52:58.691Z,98157.59
2019-06-10T10:55:25.397Z,98165.30
2019-06-10T10:57:55.481Z,98154.20
2019-06-10T11:00:22.640Z,98154.42
2019-06-10T11:02:57.322Z,98144.73
2019-06-10T11:05:41.408Z,98148.34
2019-06-10T11:08:08.403Z,98148.62
2019-06-10T11:10:46.270Z,98146.03
2019-06-10T11:13:13.216Z,98138.54
2019-06-10T11:15:39.746Z,98145.86
2019-06-10T11:18:08.092Z,98137.16
2019-06-10T11:20:34.921Z,98132.88
2019-06-10T11:23:04.850Z,98122.60
2019-06-10T11:25:33.230Z,98110.52
2019-06-10T11:28:09.330Z,98109.48
2019-06-10T11:30:36.201Z,98113.44
2019-06-10T11:33:03.508Z,98104.19
2019-06-10T11:35:30.153Z,98095.66
2019-06-10T11:37:58.121Z,98099.31
2019-06-10T11:40:35.514Z,98089.47
2019-06-10T11:43:02.197Z,98085.03
2019-06-10T11:45:29.150Z,98075.81
2019-06-10T11:47:57.026Z,98077.25
2019-06-10T11:50:24.859Z,98077.19
2019-06-10T11:52:57.156Z,98076.38
2019-06-10T11:55:23.768Z,98061.41
2019-06-10T11:57:54.925Z,98065.59
2019-06-10T12:00:33.114Z,98069.73
2019-06-10T12:03:03.517Z,98060.20
2019-06-10T12:05:32.714Z,98065.27
2019-06-10T12:08:02.548Z,98062.22
2019-06-10T12:10:29.541Z,98054.80
2019-06-10T12:13:03.068Z,98041.65
2019-06-10T12:16:12.614Z,98043.36
2019-06-10T12:18:07.943Z,98036.24
2019-06-10T12:20:33.266Z,98030.02
2019-06-10T12:23:09.586Z,98030.18
2019-06-10T12:25:39.564Z,98020.55
2019-06-10T12:28:07.507Z,98011.61
2019-06-10T12:30:34.382Z,98007.19
2019-06-10T12:33:05.314Z,97999.31
2019-06-10T12:35:33.312Z,97999.10
2019-06-10T12:38:02.330Z,97990.11
2019-06-10T12:40:28.466Z,97985.11
2019-06-10T12:42:57.964Z,97981.56
2019-06-10T12:45:24.815Z,97978.13
2019-06-10T12:47:55.007Z,97967.38
2019-06-10T12:50:25.182Z,97968.22
2019-06-10T12:52:52.929Z,97978.63
2019-06-10T12:55:35.602Z,97979.68
2019-06-10T12:57:48.915Z,97982.44
2019-06-10T13:00:22.678Z,97993.45
2019-06-10T13:02:44.970Z,97983.33
2019-06-10T13:05:12.314Z,97984.55
2019-06-10T13:07:38.957Z,97986.34
2019-06-10T13:10:06.466Z,97989.20
2019-06-10T13:12:33.362Z,97983.42
2019-06-10T13:15:07.098Z,97977.03
2019-06-10T13:17:34.144Z,97976.22
2019-06-10T13:20:13.550Z,97969.45
2019-06-10T13:22:45.754Z,97971.14
2019-06-10T13:25:13.407Z,97976.17
2019-06-10T13:27:42.843Z,97966.61
2019-06-10T13:30:09.311Z,97975.20
2019-06-10T13:32:35.846Z,97970.54
2019-06-10T13:35:04.434Z,97964.50
2019-06-10T13:37:32.171Z,97968.84
2019-06-10T13:39:59.457Z,97969.56
2019-06-10T13:42:26.102Z,97967.33
2019-06-10T13:44:57.794Z,97955.61
2019-06-10T13:47:25.011Z,97949.58
2019-06-10T13:49:53.105Z,97940.61
2019-06-10T13:52:20.345Z,97941.30
2019-06-10T13:54:47.135Z,97937.27
2019-06-10T13:57:13.963Z,97925.38
2019-06-10T13:59:45.119Z,97935.77
2019-06-10T14:02:11.809Z,97947.47
2019-06-10T14:04:38.423Z,97956.04
2019-06-10T14:07:12.672Z,97955.66
2019-06-10T14:09:48.681Z,97960.38
2019-06-10T14:12:17.602Z,97967.22
2019-06-10T14:14:44.592Z,97974.84
2019-06-10T14:17:15.869Z,97966.54
2019-06-10T14:19:43.352Z,97968.14
2019-06-10T14:22:15.726Z,97969.73
2019-06-10T14:24:42.354Z,97971.36
2019-06-10T14:27:11.504Z,97966.86
2019-06-10T14:29:37.966Z,97962.46
2019-06-10T14:32:05.870Z,97950.30
2019-06-10T14:34:33.195Z,97940.00
2019-06-10T14:36:59.766Z,97922.22
2019-06-10T14:39:26.563Z,97926.89
2019-06-10T14:41:53.082Z,97924.45
2019-06-10T14:44:19.893Z,97924.50
2019-06-10T14:46:46.546Z,97919.64
2019-06-10T14:49:14.074Z,97913.99
2019-06-10T14:51:43.083Z,97918.55
2019-06-10T14:54:09.754Z,97910.52
2019-06-10T14:56:49.620Z,97914.56
2019-06-10T14:59:14.901Z,97916.33
2019-06-10T15:01:52.110Z,97920.48
2019-06-10T15:04:19.645Z,97925.96
2019-06-10T15:06:53.499Z,97920.81
2019-06-10T15:09:22.609Z,97909.59
2019-06-10T15:11:48.686Z,97899.08
2019-06-10T15:14:17.445Z,97904.36
2019-06-10T15:16:55.164Z,97899.23
2019-06-10T15:19:28.036Z,97908.79
2019-06-10T15:21:52.246Z,97915.42
2019-06-10T15:24:18.570Z,97919.72
2019-06-10T15:26:45.485Z,97928.37
2019-06-10T15:29:15.624Z,97930.19
2019-06-10T15:31:42.809Z,97937.22
2019-06-10T15:34:19.903Z,97937.13
2019-06-10T15:36:46.730Z,97936.70
2019-06-10T15:39:19.955Z,97936.48
2019-06-10T15:41:47.882Z,97935.17
2019-06-10T15:44:23.421Z,97937.09
2019-06-10T15:46:43.238Z,97947.38
2019-06-10T15:49:11.991Z,97946.10
2019-06-10T15:51:38.543Z,97957.92
2019-06-10T15:54:05.320Z,97967.60
2019-06-10T15:56:45.711Z,97973.64
2019-06-10T15:59:13.354Z,97979.09
2019-06-10T16:01:40.606Z,97980.50
2019-06-10T16:04:07.125Z,97985.23
2019-06-10T16:06:33.705Z,97988.73
2019-06-10T16:09:03.059Z,98003.10
2019-06-10T16:11:29.605Z,97994.61
2019-06-10T16:13:56.353Z,97998.82
2019-06-10T16:16:23.146Z,97996.61
2019-06-10T16:18:49.967Z,97992.32
2019-06-10T16:21:18.387Z,98001.12
2019-06-10T16:23:45.399Z,98005.70
2019-06-10T16:26:13.131Z,97996.40
2019-06-10T16:28:43.608Z,97977.97
2019-06-10T16:31:10.169Z,97957.14
2019-06-10T16:33:49.236Z,97932.75
2019-06-10T16:36:12.244Z,97921.78
2019-06-10T16:38:38.797Z,97933.79
2019-06-10T16:41:05.432Z,97935.11
2019-06-10T16:43:33.480Z,97959.89
2019-06-10T16:46:00.328Z,97978.98
2019-06-10T16:48:26.904Z,97992.25
2019-06-10T16:50:54.316Z,98008.88
2019-06-10T16:53:32.344Z,98019.39
2019-06-10T16:56:03.308Z,98028.52
2019-06-10T16:58:33.176Z,98034.53
2019-06-10T17:00:59.508Z,98039.63
2019-06-10T17:03:29.176Z,98046.46
2019-06-10T17:05:56.865Z,98044.50
2019-06-10T17:08:26.472Z,98064.37
2019-06-10T17:10:54.203Z,98068.48
2019-06-10T17:13:24.947Z,98064.71
2019-06-10T17:15:53.660Z,98072.59
2019-06-10T17:18:21.066Z,98066.04
2019-06-10T17:20:48.301Z,98055.61
2019-06-10T17:23:24.694Z,98047.05
2019-06-10T17:25:53.293Z,98050.16
2019-06-10T17:28:20.769Z,98046.08
2019-06-10T17:30:48.302Z,98044.27
2019-06-10T17:33:25.407Z,98033.81
2019-06-10T17:35:52.430Z,98020.25
2019-06-10T17:38:20.557Z,98027.58
2019-06-10T17:40:47.499Z,98044.48
2019-06-10T17:43:14.005Z,98047.75
2019-06-10T17:45:42.209Z,98056.05
2019-06-10T17:48:08.989Z,98064.70
2019-06-10T17:50:35.639Z,98062.67
2019-06-10T17:53:08.597Z,98043.34
2019-06-10T17:55:37.887Z,98054.69
2019-06-10T17:58:31.473Z,98077.05
2019-06-10T18:00:45.668Z,98070.06
2019-06-10T18:03:13.150Z,98064.75
2019-06-10T18:05:42.396Z,98037.73
2019-06-10T18:08:13.244Z,98029.95
2019-06-10T18:10:40.523Z,98012.16
2019-06-10T18:13:16.822Z,98012.16
2019-06-10T18:15:42.853Z,98007.30
2019-06-10T18:18:12.859Z,98016.28
2019-06-10T18:20:44.387Z,98023.17
2019-06-10T18:23:22.886Z,98025.80
2019-06-10T18:25:49.326Z,98021.53
2019-06-10T18:28:18.925Z,98004.58
2019-06-10T18:30:45.676Z,97973.52
2019-06-10T18:33:13.350Z,97973.52
2019-06-10T18:35:46.825Z,97962.17
2019-06-10T18:38:16.402Z,97947.75
2019-06-10T18:40:43.095Z,97947.75
2019-06-10T18:43:12.023Z,97945.53
2019-06-10T18:45:48.919Z,97931.88
2019-06-10T18:48:15.604Z,97919.19
2019-06-10T18:50:43.196Z,97918.81
2019-06-10T18:53:12.490Z,97925.25
2019-06-10T18:55:40.640Z,97939.94
2019-06-10T18:58:07.568Z,97934.57
2019-06-10T19:00:55.877Z,97944.78
2019-06-10T19:05:39.422Z,97932.93
2019-06-10T19:08:13.820Z,97923.00
2019-06-10T19:10:43.133Z,97922.02
2019-06-10T19:13:08.810Z,97933.78
2019-06-10T19:15:39.787Z,97943.19
2019-06-10T19:18:07.242Z,97932.08
2019-06-10T19:20:39.128Z,97957.45
2019-06-10T19:23:05.408Z,97957.45
2019-06-10T19:25:33.781Z,97976.88
2019-06-10T19:28:00.698Z,97976.88
2019-06-10T19:30:38.548Z,97972.31
2019-06-10T19:33:37.532Z,97986.37
2019-06-10T19:36:05.015Z,97992.66
2019-06-10T19:38:35.442Z,97963.20
2019-06-10T19:41:02.835Z,97935.27
2019-06-10T19:43:30.253Z,97925.95
2019-06-10T19:45:57.836Z,97918.91
2019-06-10T19:48:24.405Z,97911.10
2019-06-10T19:50:53.794Z,97901.64
2019-06-10T19:53:19.335Z,97902.03
2019-06-10T19:55:46.762Z,97895.59
2019-06-10T19:58:13.508Z,97892.34
2019-06-10T20:00:48.853Z,97917.26
2019-06-10T20:03:13.882Z,97922.37
2019-06-10T20:05:44.629Z,97922.37
2019-06-10T20:08:12.109Z,97928.64
2019-06-10T20:10:42.315Z,97911.96
2019-06-10T20:13:11.871Z,97901.91
2019-06-10T20:15:39.483Z,97913.32
2019-06-10T20:18:06.049Z,97903.60
2019-06-10T20:20:33.320Z,97898.33
2019-06-10T20:23:02.883Z,97900.78
2019-06-10T20:25:29.615Z,97896.52
2019-06-10T20:27:56.324Z,97891.48
2019-06-10T20:30:30.003Z,97902.59
2019-06-10T20:33:03.507Z,97909.11
2019-06-10T20:35:32.852Z,97918.86
2019-06-10T20:38:04.812Z,97909.83
2019-06-10T20:40:32.135Z,97908.60
2019-06-10T20:43:02.991Z,97903.86
2019-06-10T20:45:29.730Z,97906.62
2019-06-10T20:48:03.103Z,97905.81
2019-06-10T20:50:32.120Z,97909.81
2019-06-10T20:53:10.975Z,97900.52
2019-06-10T20:55:40.182Z,97895.09
2019-06-10T20:58:03.426Z,97886.27
2019-06-10T21:00:34.566Z,97871.56
2019-06-10T21:03:03.198Z,97881.73
2019-06-10T21:05:35.215Z,97889.89
2019-06-10T21:08:02.952Z,97907.98
2019-06-10T21:10:36.112Z,97920.14
2019-06-10T21:13:04.011Z,97918.79
2019-06-10T21:15:33.336Z,97924.70
2019-06-10T21:18:01.128Z,97924.52
2019-06-10T21:20:27.861Z,97930.25
2019-06-10T21:22:55.440Z,97948.11
2019-06-10T21:25:22.939Z,97942.61
2019-06-10T21:27:52.051Z,97941.77
2019-06-10T21:30:18.194Z,97925.70
2019-06-10T21:32:45.735Z,97916.25
2019-06-10T21:35:13.276Z,97907.41
2019-06-10T21:37:42.543Z,97901.81
2019-06-10T21:40:12.662Z,97900.64
2019-06-10T21:42:38.961Z,97889.86
2019-06-10T21:45:05.700Z,97876.61
2019-06-10T21:47:32.477Z,97882.66
2019-06-10T21:49:58.964Z,97876.80
2019-06-10T21:52:25.492Z,97884.92
2019-06-10T21:54:52.795Z,97892.98
2019-06-10T21:57:19.326Z,97890.14
2019-06-10T21:59:47.002Z,97891.97
2019-06-10T22:02:14.878Z,97897.80
2019-06-10T22:04:43.616Z,97911.14
2019-06-10T22:07:09.985Z,97926.07
2019-06-10T22:09:36.586Z,97932.41
2019-06-10T22:12:03.109Z,97938.36
2019-06-10T22:14:29.709Z,97950.81
2019-06-10T22:16:57.596Z,97959.77
2019-06-10T22:19:24.197Z,97956.73
2019-06-10T22:21:53.203Z,97958.77
2019-06-10T22:24:19.394Z,97955.20
2019-06-10T22:26:51.033Z,97963.17
2019-06-10T22:29:17.959Z,97972.23
2019-06-10T22:31:45.216Z,97975.20
2019-06-10T22:34:12.829Z,97984.72
2019-06-10T22:36:39.332Z,97987.19
2019-06-10T22:39:05.845Z,97982.06
2019-06-10T22:41:32.496Z,97989.75
2019-06-10T22:43:59.833Z,97984.92
2019-06-10T22:46:27.666Z,97978.62
2019-06-10T22:48:55.228Z,97975.28
2019-06-10T22:51:25.095Z,97976.05
2019-06-10T22:53:54.872Z,97972.72
2019-06-10T22:56:20.285Z,97968.64
2019-06-10T22:58:47.623Z,97975.36
2019-06-10T23:01:14.178Z,97979.94
2019-06-10T23:03:40.979Z,97976.05
2019-06-10T23:06:07.493Z,97967.09
2019-06-10T23:08:35.107Z,97962.98
2019-06-10T23:11:02.785Z,97965.25
2019-06-10T23:13:29.414Z,97959.70
2019-06-10T23:15:57.928Z,97967.42
2019-06-10T23:18:24.677Z,97958.61
2019-06-10T23:20:53.916Z,97974.91
2019-06-10T23:23:19.693Z,97978.48
2019-06-10T23:25:46.385Z,97985.55
2019-06-10T23:28:16.082Z,97989.13
2019-06-10T23:30:43.090Z,97991.52
2019-06-10T23:33:12.201Z,97990.34
2019-06-10T23:35:38.113Z,97984.39
2019-06-10T23:38:05.257Z,97987.75
2019-06-10T23:40:32.340Z,97983.98
2019-06-10T23:42:59.039Z,97983.69
2019-06-10T23:45:29.891Z,97966.92
2019-06-10T23:47:57.729Z,97954.52
2019-06-10T23:50:24.561Z,97948.75
2019-06-10T23:52:54.221Z,97935.20
2019-06-10T23:55:22.545Z,97935.50
2019-06-10T23:57:48.458Z,97936.91
